createdAt,value
2022-09-26T00:00:25.384Z,989.56
2022-09-26T00:01:25.454Z,989.59
2022-09-26T00:02:25.452Z,989.57
2022-09-26T00:03:25.364Z,989.55
2022-09-26T00:04:29.103Z,989.51
2022-09-26T00:05:27.345Z,989.45
2022-09-26T00:06:25.335Z,989.50
2022-09-26T00:07:25.350Z,989.53
2022-09-26T00:08:25.368Z,989.54
2022-09-26T00:09:25.309Z,989.50
2022-09-26T00:10:25.298Z,989.44
2022-09-26T00:11:25.283Z,989.49
2022-09-26T00:12:26.312Z,989.47
2022-09-26T00:13:25.280Z,989.39
2022-09-26T00:14:25.289Z,989.45
2022-09-26T00:15:25.267Z,989.49
2022-09-26T00:16:25.299Z,989.45
2022-09-26T00:17:25.275Z,989.45
2022-09-26T00:18:25.231Z,989.46
2022-09-26T00:19:26.232Z,989.42
2022-09-26T00:20:25.228Z,989.42
2022-09-26T00:21:25.218Z,989.41
2022-09-26T00:22:25.234Z,989.38
2022-09-26T00:23:25.202Z,989.33
2022-09-26T00:24:25.196Z,989.28
2022-09-26T00:25:25.192Z,989.36
2022-09-26T00:26:25.185Z,989.31
2022-09-26T00:27:25.205Z,989.24
2022-09-26T00:28:25.168Z,989.27
2022-09-26T00:29:25.166Z,989.18
2022-09-26T00:30:25.253Z,989.20
2022-09-26T00:31:25.167Z,989.24
2022-09-26T00:32:25.165Z,989.28
2022-09-26T00:33:25.126Z,989.23
2022-09-26T00:34:25.122Z,989.18
2022-09-26T00:35:25.135Z,989.20
2022-09-26T00:36:36.874Z,989.26
2022-09-26T00:37:27.165Z,989.25
2022-09-26T00:38:25.094Z,989.25
2022-09-26T00:39:25.088Z,989.24
2022-09-26T00:40:25.119Z,989.19
2022-09-26T00:41:25.076Z,989.18
2022-09-26T00:42:25.099Z,989.26
2022-09-26T00:43:25.063Z,989.22
2022-09-26T00:44:25.052Z,989.23
2022-09-26T00:45:25.042Z,989.20
2022-09-26T00:46:25.081Z,989.15
2022-09-26T00:47:25.057Z,989.14
2022-09-26T00:48:25.021Z,989.14
2022-09-26T00:49:25.018Z,989.18
2022-09-26T00:50:25.003Z,989.15
2022-09-26T00:51:24.996Z,989.17
2022-09-26T00:52:24.987Z,989.18
2022-09-26T00:53:24.993Z,989.16
2022-09-26T00:54:25.966Z,989.19
2022-09-26T00:55:24.969Z,989.15
2022-09-26T00:56:24.953Z,989.16
2022-09-26T00:57:24.953Z,989.10
2022-09-26T00:58:24.963Z,989.12
2022-09-26T00:59:24.926Z,989.11
2022-09-26T01:00:24.924Z,989.13
2022-09-26T01:01:25.052Z,989.11
2022-09-26T01:02:25.077Z,989.07
2022-09-26T01:03:24.927Z,989.00
2022-09-26T01:04:24.895Z,989.04
2022-09-26T01:05:24.887Z,989.04
2022-09-26T01:06:24.878Z,988.96
2022-09-26T01:07:24.872Z,989.01
2022-09-26T01:08:24.887Z,988.93
2022-09-26T01:09:24.857Z,988.91
2022-09-26T01:10:24.845Z,988.95
2022-09-26T01:11:24.838Z,988.95
2022-09-26T01:12:24.825Z,988.90
2022-09-26T01:13:24.844Z,988.94
2022-09-26T01:14:24.814Z,988.86
2022-09-26T01:15:24.801Z,988.96
2022-09-26T01:16:24.857Z,988.95
2022-09-26T01:17:24.787Z,988.92
2022-09-26T01:18:24.807Z,988.85
2022-09-26T01:19:24.773Z,988.84
2022-09-26T01:20:24.768Z,988.87
2022-09-26T01:21:24.757Z,988.86
2022-09-26T01:22:24.778Z,988.86
2022-09-26T01:23:24.738Z,988.86
2022-09-26T01:24:24.738Z,988.79
2022-09-26T01:25:24.743Z,988.81
2022-09-26T01:26:24.717Z,988.78
2022-09-26T01:27:24.739Z,988.77
2022-09-26T01:28:24.703Z,988.76
2022-09-26T01:29:24.714Z,988.82
2022-09-26T01:30:24.724Z,988.78
2022-09-26T01:31:24.714Z,988.73
2022-09-26T01:32:24.696Z,988.74
2022-09-26T01:33:24.660Z,988.78
2022-09-26T01:34:24.659Z,988.72
2022-09-26T01:35:24.652Z,988.71
2022-09-26T01:36:24.641Z,988.69
2022-09-26T01:37:24.664Z,988.63
2022-09-26T01:38:24.627Z,988.63
2022-09-26T01:39:24.619Z,988.67
2022-09-26T01:40:24.666Z,988.69
2022-09-26T01:41:24.598Z,988.67
2022-09-26T01:42:24.635Z,988.62
2022-09-26T01:43:24.592Z,988.64
2022-09-26T01:44:24.581Z,988.64
2022-09-26T01:45:24.568Z,988.65
2022-09-26T01:46:24.641Z,988.71
2022-09-26T01:47:24.559Z,988.71
2022-09-26T01:48:24.574Z,988.62
2022-09-26T01:49:24.544Z,988.58
2022-09-26T01:50:24.539Z,988.67
2022-09-26T01:51:24.539Z,988.61
2022-09-26T01:52:24.525Z,988.65
2022-09-26T01:53:24.544Z,988.61
2022-09-26T01:54:24.513Z,988.65
2022-09-26T01:55:24.504Z,988.58
2022-09-26T01:56:24.496Z,988.57
2022-09-26T01:57:24.486Z,988.55
2022-09-26T01:58:24.508Z,988.49
2022-09-26T01:59:24.473Z,988.50
2022-09-26T02:00:24.467Z,988.50
2022-09-26T02:01:24.547Z,988.48
2022-09-26T02:02:24.545Z,988.49
2022-09-26T02:03:24.469Z,988.49
2022-09-26T02:04:24.436Z,988.54
2022-09-26T02:05:24.427Z,988.45
2022-09-26T02:06:24.416Z,988.43
2022-09-26T02:07:24.413Z,988.44
2022-09-26T02:08:24.436Z,988.40
2022-09-26T02:09:24.401Z,988.42
2022-09-26T02:10:24.387Z,988.40
2022-09-26T02:11:24.375Z,988.44
2022-09-26T02:12:24.376Z,988.38
2022-09-26T02:13:24.389Z,988.36
2022-09-26T02:14:24.371Z,988.40
2022-09-26T02:15:24.350Z,988.32
2022-09-26T02:16:24.403Z,988.37
2022-09-26T02:17:24.335Z,988.35
2022-09-26T02:18:24.360Z,988.29
2022-09-26T02:19:24.324Z,988.32
2022-09-26T02:20:24.322Z,988.31
2022-09-26T02:21:24.309Z,988.23
2022-09-26T02:22:24.307Z,988.23
2022-09-26T02:23:24.320Z,988.33
2022-09-26T02:24:24.292Z,988.30
2022-09-26T02:25:24.277Z,988.26
2022-09-26T02:26:24.276Z,988.22
2022-09-26T02:27:24.267Z,988.25
2022-09-26T02:28:24.283Z,988.19
2022-09-26T02:29:24.245Z,988.18
2022-09-26T02:30:24.238Z,988.19
2022-09-26T02:31:24.299Z,988.13
2022-09-26T02:32:24.225Z,988.05
2022-09-26T02:33:24.249Z,988.11
2022-09-26T02:34:24.212Z,988.05
2022-09-26T02:35:24.205Z,988.10
2022-09-26T02:36:24.191Z,988.04
2022-09-26T02:37:24.190Z,988.09
2022-09-26T02:38:24.198Z,988.12
2022-09-26T02:39:24.168Z,988.05
2022-09-26T02:40:24.206Z,988.07
2022-09-26T02:41:24.159Z,988.00
2022-09-26T02:42:24.142Z,988.01
2022-09-26T02:43:24.161Z,988.08
2022-09-26T02:44:24.132Z,988.13
2022-09-26T02:45:24.197Z,988.07
2022-09-26T02:46:24.118Z,988.07
2022-09-26T02:47:24.112Z,988.04
2022-09-26T02:48:24.125Z,988.04
2022-09-26T02:49:24.098Z,988.01
2022-09-26T02:50:24.087Z,988.05
2022-09-26T02:51:24.083Z,988.02
2022-09-26T02:52:24.101Z,988.03
2022-09-26T02:53:24.091Z,988.09
2022-09-26T02:54:24.063Z,988.09
2022-09-26T02:55:24.059Z,988.03
2022-09-26T02:56:24.042Z,988.01
2022-09-26T02:57:24.028Z,988.01
2022-09-26T02:58:24.050Z,988.01
2022-09-26T02:59:24.022Z,987.97
2022-09-26T03:00:24.012Z,987.96
2022-09-26T03:01:24.045Z,988.01
2022-09-26T03:02:23.995Z,987.96
2022-09-26T03:03:24.083Z,987.99
2022-09-26T03:04:24.019Z,987.97
2022-09-26T03:05:23.978Z,987.94
2022-09-26T03:06:23.963Z,987.92
2022-09-26T03:07:23.975Z,987.87
2022-09-26T03:08:23.970Z,987.91
2022-09-26T03:09:23.945Z,987.87
2022-09-26T03:10:23.939Z,987.82
2022-09-26T03:11:23.930Z,987.81
2022-09-26T03:12:23.920Z,987.79
2022-09-26T03:13:23.942Z,987.72
2022-09-26T03:14:23.908Z,987.72
2022-09-26T03:15:23.894Z,987.77
2022-09-26T03:16:23.950Z,987.72
2022-09-26T03:17:23.882Z,987.71
2022-09-26T03:18:23.898Z,987.66
2022-09-26T03:19:23.870Z,987.73
2022-09-26T03:20:23.862Z,987.66
2022-09-26T03:21:23.856Z,987.66
2022-09-26T03:22:23.847Z,987.72
2022-09-26T03:23:23.873Z,987.66
2022-09-26T03:24:23.832Z,987.57
2022-09-26T03:25:23.821Z,987.60
2022-09-26T03:26:23.819Z,987.64
2022-09-26T03:27:23.803Z,987.57
2022-09-26T03:28:23.820Z,987.62
2022-09-26T03:29:23.798Z,987.58
2022-09-26T03:30:23.781Z,987.58
2022-09-26T03:31:23.810Z,987.57
2022-09-26T03:32:23.772Z,987.47
2022-09-26T03:33:23.787Z,987.58
2022-09-26T03:34:23.751Z,987.58
2022-09-26T03:35:23.742Z,987.53
2022-09-26T03:36:23.738Z,987.50
2022-09-26T03:37:23.734Z,987.47
2022-09-26T03:38:23.765Z,987.41
2022-09-26T03:39:23.718Z,987.51
2022-09-26T03:40:23.770Z,987.45
2022-09-26T03:41:23.702Z,987.46
2022-09-26T03:42:23.701Z,987.51
2022-09-26T03:43:23.699Z,987.43
2022-09-26T03:44:23.711Z,987.41
2022-09-26T03:45:23.720Z,987.42
2022-09-26T03:46:23.666Z,987.45
2022-09-26T03:47:23.671Z,987.43
2022-09-26T03:48:23.681Z,987.40
2022-09-26T03:49:23.652Z,987.42
2022-09-26T03:50:56.487Z,987.40
2022-09-26T03:51:23.632Z,987.38
2022-09-26T03:52:23.624Z,987.39
2022-09-26T03:53:23.617Z,987.31
2022-09-26T03:54:23.625Z,987.32
2022-09-26T03:55:23.595Z,987.34
2022-09-26T03:56:23.593Z,987.27
2022-09-26T03:57:23.589Z,987.28
2022-09-26T03:58:23.579Z,987.25
2022-09-26T03:59:23.600Z,987.30
2022-09-26T04:00:23.569Z,987.21
2022-09-26T04:01:23.609Z,987.22
2022-09-26T04:02:23.621Z,987.23
2022-09-26T04:03:23.553Z,987.18
2022-09-26T04:04:23.561Z,987.21
2022-09-26T04:05:23.521Z,987.23
2022-09-26T04:06:23.525Z,987.17
2022-09-26T04:07:23.527Z,987.14
2022-09-26T04:08:23.503Z,987.18
2022-09-26T04:09:23.565Z,987.11
2022-09-26T04:10:23.492Z,987.21
2022-09-26T04:11:23.484Z,987.05
2022-09-26T04:12:23.475Z,987.05
2022-09-26T04:13:49.495Z,987.04
2022-09-26T04:14:25.489Z,987.00
2022-09-26T04:15:23.451Z,987.03
2022-09-26T04:16:23.497Z,987.14
2022-09-26T04:17:23.432Z,987.06
2022-09-26T04:18:24.432Z,987.01
2022-09-26T04:19:23.444Z,987.02
2022-09-26T04:20:24.425Z,986.99
2022-09-26T04:21:23.409Z,987.00
2022-09-26T04:22:23.399Z,986.95
2022-09-26T04:23:23.392Z,986.95
2022-09-26T04:24:23.410Z,986.97
2022-09-26T04:25:23.402Z,986.97
2022-09-26T04:26:24.114Z,986.92
2022-09-26T04:27:24.373Z,986.91
2022-09-26T04:28:23.355Z,986.93
2022-09-26T04:29:23.376Z,986.89
2022-09-26T04:30:23.340Z,986.90
2022-09-26T04:31:23.407Z,986.89
2022-09-26T04:32:23.321Z,986.84
2022-09-26T04:33:24.324Z,986.76
2022-09-26T04:34:27.034Z,986.73
2022-09-26T04:35:24.306Z,986.77
2022-09-26T04:36:23.309Z,986.84
2022-09-26T04:37:23.286Z,986.76
2022-09-26T04:38:23.280Z,986.69
2022-09-26T04:39:23.300Z,986.74
2022-09-26T04:40:23.309Z,986.70
2022-09-26T04:41:23.259Z,986.73
2022-09-26T04:42:23.258Z,986.68
2022-09-26T04:43:23.243Z,986.72
2022-09-26T04:44:23.266Z,986.63
2022-09-26T04:45:23.266Z,986.67
2022-09-26T04:46:28.277Z,986.66
2022-09-26T04:47:25.208Z,986.75
2022-09-26T04:48:23.201Z,986.77
2022-09-26T04:49:23.223Z,986.70
2022-09-26T04:50:23.190Z,986.68
2022-09-26T04:51:23.177Z,986.71
2022-09-26T04:52:23.168Z,986.69
2022-09-26T04:53:23.162Z,986.70
2022-09-26T04:54:23.163Z,986.74
2022-09-26T04:55:23.170Z,986.66
2022-09-26T04:56:23.137Z,986.69
2022-09-26T04:57:23.137Z,986.66
2022-09-26T04:58:23.126Z,986.61
2022-09-26T04:59:23.140Z,986.67
2022-09-26T05:00:23.146Z,986.65
2022-09-26T05:01:23.178Z,986.59
2022-09-26T05:02:23.158Z,986.64
2022-09-26T05:03:23.089Z,986.60
2022-09-26T05:04:27.436Z,986.60
2022-09-26T05:05:24.114Z,986.56
2022-09-26T05:06:23.066Z,986.58
2022-09-26T05:07:24.081Z,986.51
2022-09-26T05:08:24.066Z,986.53
2022-09-26T05:09:23.036Z,986.48
2022-09-26T05:10:23.053Z,986.51
2022-09-26T05:11:23.040Z,986.52
2022-09-26T05:12:23.012Z,986.46
2022-09-26T05:13:23.009Z,986.49
2022-09-26T05:14:23.006Z,986.45
2022-09-26T05:15:23.025Z,986.50
2022-09-26T05:16:23.015Z,986.49
2022-09-26T05:17:22.977Z,986.51
2022-09-26T05:18:22.970Z,986.49
2022-09-26T05:19:22.971Z,986.48
2022-09-26T05:20:22.988Z,986.51
2022-09-26T05:21:22.952Z,986.45
2022-09-26T05:22:22.945Z,986.48
2022-09-26T05:23:22.935Z,986.47
2022-09-26T05:24:22.926Z,986.47
2022-09-26T05:25:22.943Z,986.41
2022-09-26T05:26:22.913Z,986.42
2022-09-26T05:27:22.903Z,986.39
2022-09-26T05:28:22.892Z,986.40
2022-09-26T05:29:22.884Z,986.38
2022-09-26T05:30:22.903Z,986.35
2022-09-26T05:31:22.929Z,986.30
2022-09-26T05:32:22.860Z,986.29
2022-09-26T05:33:22.856Z,986.26
2022-09-26T05:34:22.848Z,986.30
2022-09-26T05:35:22.872Z,986.32
2022-09-26T05:36:22.840Z,986.29
2022-09-26T05:37:22.826Z,986.29
2022-09-26T05:38:22.818Z,986.32
2022-09-26T05:39:22.820Z,986.26
2022-09-26T05:40:22.896Z,986.32
2022-09-26T05:41:22.802Z,986.31
2022-09-26T05:42:22.789Z,986.28
2022-09-26T05:43:22.791Z,986.27
2022-09-26T05:44:22.772Z,986.31
2022-09-26T05:45:22.813Z,986.22
2022-09-26T05:46:22.787Z,986.27
2022-09-26T05:47:22.753Z,986.23
2022-09-26T05:48:22.743Z,986.19
2022-09-26T05:49:22.739Z,986.18
2022-09-26T05:50:22.752Z,986.21
2022-09-26T05:51:22.721Z,986.17
2022-09-26T05:52:22.710Z,986.21
2022-09-26T05:53:22.705Z,986.15
2022-09-26T05:54:22.695Z,986.16
2022-09-26T05:55:22.705Z,986.13
2022-09-26T05:56:22.693Z,986.11
2022-09-26T05:57:22.671Z,986.09
2022-09-26T05:58:22.668Z,986.11
2022-09-26T05:59:22.659Z,986.12
2022-09-26T06:00:22.670Z,986.11
2022-09-26T06:01:22.759Z,986.14
2022-09-26T06:02:22.722Z,986.09
2022-09-26T06:03:22.627Z,986.09
2022-09-26T06:04:22.616Z,986.11
2022-09-26T06:05:22.716Z,986.07
2022-09-26T06:06:22.614Z,986.07
2022-09-26T06:07:22.592Z,986.13
2022-09-26T06:08:22.591Z,986.15
2022-09-26T06:09:22.582Z,986.09
2022-09-26T06:10:22.636Z,986.08
2022-09-26T06:11:22.568Z,986.14
2022-09-26T06:12:22.561Z,986.07
2022-09-26T06:13:22.555Z,986.08
2022-09-26T06:14:22.542Z,986.05
2022-09-26T06:15:22.538Z,986.08
2022-09-26T06:16:22.629Z,986.00
2022-09-26T06:17:22.532Z,986.04
2022-09-26T06:18:22.520Z,986.05
2022-09-26T06:19:23.296Z,986.02
2022-09-26T06:20:23.570Z,986.03
2022-09-26T06:21:22.519Z,985.92
2022-09-26T06:22:22.482Z,985.89
2022-09-26T06:23:22.489Z,985.90
2022-09-26T06:24:22.475Z,985.83
2022-09-26T06:25:22.487Z,985.89
2022-09-26T06:26:22.487Z,985.93
2022-09-26T06:27:22.468Z,985.88
2022-09-26T06:28:22.445Z,985.93
2022-09-26T06:29:22.440Z,985.95
2022-09-26T06:30:22.427Z,985.94
2022-09-26T06:31:22.493Z,985.80
2022-09-26T06:32:22.414Z,985.86
2022-09-26T06:33:22.404Z,985.85
2022-09-26T06:34:22.400Z,985.87
2022-09-26T06:35:22.394Z,985.87
2022-09-26T06:36:23.081Z,985.84
2022-09-26T06:37:22.368Z,985.76
2022-09-26T06:38:22.373Z,985.83
2022-09-26T06:39:22.362Z,985.76
2022-09-26T06:40:22.440Z,985.82
2022-09-26T06:41:22.364Z,985.78
2022-09-26T06:42:22.340Z,985.66
2022-09-26T06:43:22.361Z,985.74
2022-09-26T06:44:22.360Z,985.73
2022-09-26T06:45:22.310Z,985.70
2022-09-26T06:46:22.439Z,985.75
2022-09-26T06:47:22.306Z,985.71
2022-09-26T06:48:24.598Z,985.72
2022-09-26T06:49:23.322Z,985.67
2022-09-26T06:50:22.275Z,985.60
2022-09-26T06:51:22.293Z,985.57
2022-09-26T06:52:22.259Z,985.62
2022-09-26T06:53:22.253Z,985.63
2022-09-26T06:54:22.241Z,985.58
2022-09-26T06:55:22.231Z,985.53
2022-09-26T06:56:22.265Z,985.57
2022-09-26T06:57:22.207Z,985.58
2022-09-26T06:58:23.215Z,985.56
2022-09-26T06:59:22.217Z,985.52
2022-09-26T07:00:22.241Z,985.59
2022-09-26T07:01:22.340Z,985.60
2022-09-26T07:02:22.214Z,985.59
2022-09-26T07:03:22.174Z,985.59
2022-09-26T07:04:22.168Z,985.58
2022-09-26T07:05:22.158Z,985.53
2022-09-26T07:06:22.168Z,985.55
2022-09-26T07:07:23.154Z,985.54
2022-09-26T07:08:32.557Z,985.56
2022-09-26T07:09:24.128Z,985.56
2022-09-26T07:10:22.114Z,985.55
2022-09-26T07:12:24.103Z,985.55
2022-09-26T07:13:22.108Z,985.48
2022-09-26T07:14:22.097Z,985.44
2022-09-26T07:15:22.084Z,985.44
2022-09-26T07:16:22.122Z,985.48
2022-09-26T07:17:22.083Z,985.46
2022-09-26T07:18:22.068Z,985.45
2022-09-26T07:19:22.082Z,985.49
2022-09-26T07:20:22.057Z,985.48
2022-09-26T07:21:22.087Z,985.40
2022-09-26T07:22:22.072Z,985.47
2022-09-26T07:23:22.019Z,985.42
2022-09-26T07:24:22.017Z,985.44
2022-09-26T07:25:22.169Z,985.36
2022-09-26T07:26:22.028Z,985.38
2022-09-26T07:27:22.055Z,985.40
2022-09-26T07:28:22.006Z,985.36
2022-09-26T07:29:21.968Z,985.37
2022-09-26T07:30:21.972Z,985.35
2022-09-26T07:31:22.032Z,985.36
2022-09-26T07:32:21.981Z,985.40
2022-09-26T07:33:21.939Z,985.38
2022-09-26T07:34:21.939Z,985.33
2022-09-26T07:35:21.930Z,985.27
2022-09-26T07:36:21.923Z,985.23
2022-09-26T07:37:21.940Z,985.18
2022-09-26T07:38:21.913Z,985.21
2022-09-26T07:39:21.899Z,985.29
2022-09-26T07:40:21.914Z,985.24
2022-09-26T07:41:21.890Z,985.26
2022-09-26T07:42:21.897Z,985.23
2022-09-26T07:43:35.610Z,985.15
2022-09-26T07:45:28.809Z,985.23
2022-09-26T07:45:29.423Z,985.23
2022-09-26T07:46:23.910Z,985.22
2022-09-26T07:47:21.866Z,985.23
2022-09-26T07:48:21.827Z,985.22
2022-09-26T07:49:22.819Z,985.17
2022-09-26T07:50:21.812Z,985.16
2022-09-26T07:51:22.442Z,985.16
2022-09-26T07:52:21.801Z,985.16
2022-09-26T07:53:21.788Z,985.15
2022-09-26T07:54:21.791Z,985.14
2022-09-26T07:55:21.781Z,985.12
2022-09-26T07:56:21.789Z,985.11
2022-09-26T07:57:21.761Z,985.14
2022-09-26T07:58:21.761Z,985.19
2022-09-26T07:59:21.738Z,985.02
2022-09-26T08:00:21.735Z,985.15
2022-09-26T08:01:21.842Z,985.05
2022-09-26T08:02:21.893Z,985.08
2022-09-26T08:03:21.748Z,985.10
2022-09-26T08:04:21.704Z,985.08
2022-09-26T08:05:21.692Z,985.00
2022-09-26T08:06:21.718Z,985.07
2022-09-26T08:07:21.693Z,985.07
2022-09-26T08:08:21.670Z,985.05
2022-09-26T08:09:21.662Z,985.00
2022-09-26T08:10:21.760Z,985.00
2022-09-26T08:11:21.675Z,984.89
2022-09-26T08:12:21.640Z,984.97
2022-09-26T08:13:21.629Z,984.99
2022-09-26T08:14:21.621Z,984.95
2022-09-26T08:15:21.631Z,984.91
2022-09-26T08:16:21.635Z,984.95
2022-09-26T08:17:22.625Z,984.98
2022-09-26T08:18:21.591Z,984.90
2022-09-26T08:19:21.617Z,984.88
2022-09-26T08:20:21.626Z,984.84
2022-09-26T08:21:21.564Z,984.83
2022-09-26T08:22:21.587Z,984.77
2022-09-26T08:23:21.547Z,984.84
2022-09-26T08:24:21.543Z,984.76
2022-09-26T08:25:21.538Z,984.81
2022-09-26T08:26:21.524Z,984.79
2022-09-26T08:27:21.557Z,984.74
2022-09-26T08:28:21.530Z,984.70
2022-09-26T08:29:21.515Z,984.72
2022-09-26T08:30:21.512Z,984.70
2022-09-26T08:31:21.510Z,984.64
2022-09-26T08:32:21.503Z,984.71
2022-09-26T08:33:21.469Z,984.70
2022-09-26T08:34:25.304Z,984.62
2022-09-26T08:35:22.456Z,984.68
2022-09-26T08:36:21.449Z,984.69
2022-09-26T08:37:21.505Z,984.72
2022-09-26T08:38:21.443Z,984.66
2022-09-26T08:39:21.431Z,984.68
2022-09-26T08:40:21.572Z,984.60
2022-09-26T08:41:21.452Z,984.60
2022-09-26T08:42:21.399Z,984.61
2022-09-26T08:43:21.403Z,984.54
2022-09-26T08:44:21.388Z,984.53
2022-09-26T08:45:21.371Z,984.58
2022-09-26T08:46:21.399Z,984.49
2022-09-26T08:47:21.388Z,984.53
2022-09-26T08:48:21.348Z,984.54
2022-09-26T08:49:21.342Z,984.50
2022-09-26T08:50:21.352Z,984.53
2022-09-26T08:51:24.372Z,984.53
2022-09-26T08:52:22.351Z,984.53
2022-09-26T08:53:21.313Z,984.49
2022-09-26T08:54:21.307Z,984.46
2022-09-26T08:55:21.291Z,984.42
2022-09-26T08:56:21.292Z,984.36
2022-09-26T08:57:21.301Z,984.39
2022-09-26T08:58:24.208Z,984.36
2022-09-26T08:59:22.270Z,984.31
2022-09-26T09:00:21.264Z,984.31
2022-09-26T09:01:21.277Z,984.31
2022-09-26T09:02:21.415Z,984.34
2022-09-26T09:03:21.237Z,984.37
2022-09-26T09:04:21.263Z,984.29
2022-09-26T09:05:21.226Z,984.26
2022-09-26T09:06:21.216Z,984.23
2022-09-26T09:07:21.243Z,984.26
2022-09-26T09:08:21.205Z,984.29
2022-09-26T09:09:21.212Z,984.30
2022-09-26T09:10:21.192Z,984.25
2022-09-26T09:11:21.179Z,984.25
2022-09-26T09:12:24.283Z,984.25
2022-09-26T09:13:22.171Z,984.20
2022-09-26T09:14:21.155Z,984.29
2022-09-26T09:15:25.714Z,984.22
2022-09-26T09:16:23.292Z,984.29
2022-09-26T09:17:21.160Z,984.29
2022-09-26T09:18:21.133Z,984.26
2022-09-26T09:19:21.120Z,984.30
2022-09-26T09:20:21.112Z,984.37
2022-09-26T09:21:21.098Z,984.26
2022-09-26T09:22:21.122Z,984.31
2022-09-26T09:23:21.097Z,984.35
2022-09-26T09:24:21.079Z,984.25
2022-09-26T09:25:21.093Z,984.26
2022-09-26T09:28:23.052Z,984.22
2022-09-26T09:29:21.038Z,984.17
2022-09-26T09:30:21.049Z,984.15
2022-09-26T09:31:21.077Z,984.13
2022-09-26T09:32:21.043Z,984.13
2022-09-26T09:33:21.003Z,984.11
2022-09-26T09:34:21.004Z,984.17
2022-09-26T09:35:20.995Z,984.05
2022-09-26T09:36:20.999Z,983.97
2022-09-26T09:37:21.013Z,984.10
2022-09-26T09:38:20.971Z,984.08
2022-09-26T09:39:20.977Z,984.08
2022-09-26T09:40:21.071Z,984.05
2022-09-26T09:41:20.955Z,984.13
2022-09-26T09:42:20.976Z,984.02
2022-09-26T09:43:20.931Z,983.92
2022-09-26T09:44:21.931Z,983.99
2022-09-26T09:45:20.918Z,984.05
2022-09-26T09:46:20.980Z,984.01
2022-09-26T09:47:20.912Z,983.99
2022-09-26T09:48:20.890Z,983.99
2022-09-26T09:49:20.879Z,983.98
2022-09-26T09:50:53.594Z,983.84
2022-09-26T09:51:20.915Z,983.84
2022-09-26T09:52:20.875Z,983.99
2022-09-26T09:53:20.853Z,983.91
2022-09-26T09:54:20.849Z,983.92
2022-09-26T09:55:20.843Z,983.97
2022-09-26T09:56:20.854Z,983.85
2022-09-26T09:57:20.831Z,983.80
2022-09-26T09:58:20.814Z,983.80
2022-09-26T09:59:20.815Z,983.79
2022-09-26T10:00:20.798Z,983.75
2022-09-26T10:01:20.851Z,983.74
2022-09-26T10:02:20.830Z,983.72
2022-09-26T10:03:20.898Z,983.69
2022-09-26T10:04:20.781Z,983.76
2022-09-26T10:05:20.782Z,983.67
2022-09-26T10:06:46.016Z,983.69
2022-09-26T10:07:21.749Z,983.64
2022-09-26T10:08:20.736Z,983.64
2022-09-26T10:09:38.542Z,983.63
2022-09-26T10:10:21.723Z,983.60
2022-09-26T10:11:20.789Z,983.60
2022-09-26T10:12:20.709Z,983.62
2022-09-26T10:13:20.701Z,983.48
2022-09-26T10:14:20.699Z,983.66
2022-09-26T10:15:20.694Z,983.57
2022-09-26T10:16:20.783Z,983.48
2022-09-26T10:17:20.805Z,983.53
2022-09-26T10:18:25.680Z,983.52
2022-09-26T10:19:22.658Z,983.55
2022-09-26T10:20:20.646Z,983.57
2022-09-26T10:21:20.665Z,983.53
2022-09-26T10:22:20.639Z,983.49
2022-09-26T10:23:20.618Z,983.41
2022-09-26T10:24:20.622Z,983.51
2022-09-26T10:25:20.618Z,983.43
2022-09-26T10:26:20.632Z,983.54
2022-09-26T10:27:20.599Z,983.56
2022-09-26T10:28:20.588Z,983.42
2022-09-26T10:29:20.607Z,983.47
2022-09-26T10:30:20.576Z,983.49
2022-09-26T10:31:20.612Z,983.49
2022-09-26T10:32:20.558Z,983.54
2022-09-26T10:33:20.581Z,983.53
2022-09-26T10:34:20.536Z,983.49
2022-09-26T10:35:20.567Z,983.49
2022-09-26T10:36:20.516Z,983.55
2022-09-26T10:37:21.561Z,983.50
2022-09-26T10:38:20.530Z,983.61
2022-09-26T10:39:20.493Z,983.55
2022-09-26T10:40:20.528Z,983.53
2022-09-26T10:41:20.483Z,983.42
2022-09-26T10:42:20.478Z,983.48
2022-09-26T10:43:20.496Z,983.45
2022-09-26T10:44:20.457Z,983.52
2022-09-26T10:45:20.468Z,983.47
2022-09-26T10:46:20.505Z,983.52
2022-09-26T10:47:20.438Z,983.46
2022-09-26T10:48:20.454Z,983.42
2022-09-26T10:49:20.419Z,983.44
2022-09-26T10:50:20.414Z,983.49
2022-09-26T10:51:20.404Z,983.44
2022-09-26T10:52:20.403Z,983.46
2022-09-26T10:53:20.390Z,983.37
2022-09-26T10:54:20.408Z,983.42
2022-09-26T10:55:20.376Z,983.40
2022-09-26T10:56:20.376Z,983.40
2022-09-26T10:57:20.359Z,983.39
2022-09-26T10:58:20.378Z,983.40
2022-09-26T10:59:20.345Z,983.38
2022-09-26T11:00:20.343Z,983.46
2022-09-26T11:01:20.400Z,983.43
2022-09-26T11:02:20.326Z,983.33
2022-09-26T11:03:20.440Z,983.36
2022-09-26T11:04:20.315Z,983.34
2022-09-26T11:05:20.308Z,983.27
2022-09-26T11:06:23.737Z,983.25
2022-09-26T11:07:21.283Z,983.11
2022-09-26T11:08:20.515Z,983.15
2022-09-26T11:09:20.270Z,983.16
2022-09-26T11:10:20.259Z,983.23
2022-09-26T11:11:20.252Z,983.30
2022-09-26T11:12:20.262Z,983.23
2022-09-26T11:13:20.267Z,983.19
2022-09-26T11:14:21.058Z,983.14
2022-09-26T11:15:20.228Z,983.15
2022-09-26T11:16:20.431Z,983.15
2022-09-26T11:17:20.208Z,983.16
2022-09-26T11:18:20.217Z,983.12
2022-09-26T11:19:20.750Z,983.07
2022-09-26T11:20:20.242Z,983.04
2022-09-26T11:21:28.832Z,983.13
2022-09-26T11:22:22.182Z,983.05
2022-09-26T11:23:20.190Z,983.00
2022-09-26T11:24:20.155Z,982.99
2022-09-26T11:25:20.154Z,983.05
2022-09-26T11:26:20.137Z,982.97
2022-09-26T11:27:20.129Z,983.04
2022-09-26T11:28:20.146Z,982.94
2022-09-26T11:29:20.114Z,983.02
2022-09-26T11:30:20.104Z,982.96
2022-09-26T11:31:20.161Z,982.88
2022-09-26T11:32:20.096Z,982.97
2022-09-26T11:33:20.114Z,982.89
2022-09-26T11:34:20.081Z,982.84
2022-09-26T11:35:20.074Z,982.82
2022-09-26T11:36:20.067Z,982.78
2022-09-26T11:37:20.051Z,982.86
2022-09-26T11:38:20.078Z,982.74
2022-09-26T11:39:20.046Z,982.83
2022-09-26T11:40:20.188Z,982.71
2022-09-26T11:41:20.023Z,982.79
2022-09-26T11:42:20.043Z,982.78
2022-09-26T11:43:20.009Z,982.75
2022-09-26T11:44:20.005Z,982.70
2022-09-26T11:45:19.997Z,982.65
2022-09-26T11:46:20.037Z,982.65
2022-09-26T11:47:20.019Z,982.72
2022-09-26T11:48:19.971Z,982.57
2022-09-26T11:49:19.958Z,982.62
2022-09-26T11:50:19.953Z,982.59
2022-09-26T11:51:19.950Z,982.62
2022-09-26T11:52:19.965Z,982.55
2022-09-26T11:53:19.930Z,982.65
2022-09-26T11:54:19.920Z,982.61
2022-09-26T11:55:19.915Z,982.43
2022-09-26T11:56:19.902Z,982.57
2022-09-26T11:57:19.899Z,982.57
2022-09-26T11:58:19.914Z,982.48
2022-09-26T11:59:19.888Z,982.45
2022-09-26T12:00:19.874Z,982.59
2022-09-26T12:01:19.883Z,982.49
2022-09-26T12:02:19.974Z,982.51
2022-09-26T12:03:20.100Z,982.51
2022-09-26T12:04:19.880Z,982.53
2022-09-26T12:05:22.417Z,982.39
2022-09-26T12:06:20.832Z,982.37
2022-09-26T12:07:19.859Z,982.37
2022-09-26T12:08:19.825Z,982.36
2022-09-26T12:09:20.814Z,982.36
2022-09-26T12:10:19.796Z,982.35
2022-09-26T12:11:19.789Z,982.33
2022-09-26T12:12:19.783Z,982.26
2022-09-26T12:13:19.806Z,982.35
2022-09-26T12:14:19.783Z,982.27
2022-09-26T12:15:19.758Z,982.30
2022-09-26T12:16:19.833Z,982.25
2022-09-26T12:17:19.744Z,982.24
2022-09-26T12:18:19.769Z,982.26
2022-09-26T12:19:19.737Z,982.22
2022-09-26T12:20:19.718Z,982.35
2022-09-26T12:21:19.711Z,982.27
2022-09-26T12:22:19.699Z,982.17
2022-09-26T12:23:19.721Z,982.23
2022-09-26T12:24:19.690Z,982.28
2022-09-26T12:25:20.452Z,982.24
2022-09-26T12:26:20.673Z,982.18
2022-09-26T12:27:19.671Z,982.27
2022-09-26T12:28:19.690Z,982.26
2022-09-26T12:29:19.654Z,982.27
2022-09-26T12:30:19.648Z,982.25
2022-09-26T12:31:20.034Z,982.25